createdAt,value
2023-04-30T00:00:43.490Z,14.00
2023-04-30T00:03:13.746Z,13.10
2023-04-30T00:05:42.463Z,13.87
2023-04-30T00:08:11.258Z,13.60
2023-04-30T00:10:39.918Z,13.83
2023-04-30T00:13:10.340Z,14.70
2023-04-30T00:15:39.030Z,13.80
2023-04-30T00:18:08.204Z,14.30
2023-04-30T00:20:38.380Z,14.03
2023-04-30T00:23:07.057Z,13.43
2023-04-30T00:25:36.473Z,13.40
2023-04-30T00:28:05.386Z,12.90
2023-04-30T00:30:34.065Z,12.97
2023-04-30T00:33:02.939Z,12.53
2023-04-30T00:35:31.763Z,12.80
2023-04-30T00:38:02.088Z,13.03
2023-04-30T00:40:31.822Z,12.67
2023-04-30T00:43:00.647Z,12.57
2023-04-30T00:45:29.288Z,13.33
2023-04-30T00:47:58.220Z,12.73
2023-04-30T00:50:27.435Z,12.47
2023-04-30T00:53:07.330Z,12.10
2023-04-30T00:55:36.612Z,13.03
2023-04-30T00:58:05.368Z,13.10
2023-04-30T01:00:35.555Z,13.90
2023-04-30T01:03:05.317Z,13.47
2023-04-30T01:05:33.980Z,13.60
2023-04-30T01:08:04.205Z,14.30
2023-04-30T01:10:43.988Z,13.83
2023-04-30T01:13:24.011Z,13.70
2023-04-30T01:16:04.301Z,13.50
2023-04-30T01:18:43.360Z,12.97
2023-04-30T01:21:13.664Z,13.10
2023-04-30T01:24:16.858Z,14.40
2023-04-30T01:27:04.658Z,13.80
2023-04-30T01:29:37.700Z,13.83
2023-04-30T01:32:06.610Z,14.07
2023-04-30T01:34:35.326Z,14.50
2023-04-30T01:37:20.781Z,14.10
2023-04-30T01:40:10.774Z,13.97
2023-04-30T01:43:00.350Z,14.40
2023-04-30T01:45:58.817Z,12.93
2023-04-30T01:48:44.900Z,13.00
2023-04-30T01:51:26.407Z,12.90
2023-04-30T01:54:02.361Z,12.60
2023-04-30T01:56:38.566Z,12.03
2023-04-30T01:59:09.734Z,11.90
2023-04-30T02:01:41.022Z,11.43
2023-04-30T02:04:09.879Z,11.00
2023-04-30T02:06:38.841Z,11.30
2023-04-30T02:09:07.926Z,11.10
2023-04-30T02:11:38.589Z,10.83
2023-04-30T02:14:07.561Z,10.60
2023-04-30T02:16:36.305Z,10.80
2023-04-30T02:19:06.501Z,10.20
2023-04-30T02:21:35.390Z,10.30
2023-04-30T02:24:04.074Z,10.77
2023-04-30T02:26:32.993Z,9.93
2023-04-30T02:29:01.690Z,9.43
2023-04-30T02:31:30.652Z,9.53
2023-04-30T02:33:59.346Z,8.80
2023-04-30T02:36:29.420Z,8.97
2023-04-30T02:38:58.630Z,8.33
2023-04-30T02:41:27.579Z,8.70
2023-04-30T02:43:56.666Z,8.77
2023-04-30T02:46:25.466Z,8.67
2023-04-30T02:48:54.117Z,8.50
2023-04-30T02:51:22.869Z,9.07
2023-04-30T02:53:52.978Z,8.17
2023-04-30T02:56:21.686Z,8.27
2023-04-30T02:58:50.506Z,8.43
2023-04-30T03:01:19.170Z,7.80
2023-04-30T03:03:47.957Z,8.13
2023-04-30T03:06:16.981Z,8.40
2023-04-30T03:08:45.850Z,7.43
2023-04-30T03:11:16.258Z,7.33
2023-04-30T03:13:45.879Z,7.50
2023-04-30T03:16:14.740Z,7.77
2023-04-30T03:18:43.423Z,7.50
2023-04-30T03:21:12.478Z,7.13
2023-04-30T03:23:41.551Z,7.40
2023-04-30T03:26:10.392Z,7.00
2023-04-30T03:28:40.801Z,7.27
2023-04-30T03:31:09.507Z,7.77
2023-04-30T03:33:38.457Z,6.80
2023-04-30T03:36:07.740Z,6.90
2023-04-30T03:38:36.432Z,6.80
2023-04-30T03:41:05.242Z,7.00
2023-04-30T03:43:35.126Z,6.77
2023-04-30T03:46:05.395Z,7.27
2023-04-30T03:48:36.785Z,6.80
2023-04-30T03:51:12.722Z,6.97
2023-04-30T03:53:41.803Z,6.73
2023-04-30T03:56:10.662Z,7.70
2023-04-30T03:58:39.451Z,7.07
2023-04-30T04:01:09.667Z,7.17
2023-04-30T04:03:39.183Z,7.63
2023-04-30T04:06:08.429Z,7.47
2023-04-30T04:08:37.622Z,7.07
2023-04-30T04:11:07.446Z,7.47
2023-04-30T04:13:36.783Z,7.63
2023-04-30T04:16:07.223Z,6.90
2023-04-30T04:18:37.986Z,7.57
2023-04-30T04:21:08.035Z,7.10
2023-04-30T04:23:37.412Z,6.63
2023-04-30T04:26:06.233Z,6.30
2023-04-30T04:28:35.504Z,6.80
2023-04-30T04:31:05.313Z,7.00
2023-04-30T04:33:34.484Z,6.93
2023-04-30T04:36:05.589Z,6.57
2023-04-30T04:38:35.057Z,7.20
2023-04-30T04:41:05.554Z,6.23
2023-04-30T04:43:34.651Z,6.87
2023-04-30T04:46:04.480Z,5.90
2023-04-30T04:48:33.626Z,6.73
2023-04-30T04:51:04.275Z,6.53
2023-04-30T04:53:34.857Z,5.97
2023-04-30T04:56:04.649Z,6.60
2023-04-30T04:58:34.030Z,5.00
2023-04-30T05:01:06.236Z,5.63
2023-04-30T05:03:37.150Z,5.50
2023-04-30T05:06:08.881Z,5.40
2023-04-30T05:08:38.645Z,4.67
2023-04-30T05:11:07.633Z,4.60
2023-04-30T05:13:36.304Z,4.83
2023-04-30T05:16:06.565Z,4.87
2023-04-30T05:18:35.710Z,4.97
2023-04-30T05:21:06.241Z,4.60
2023-04-30T05:23:35.342Z,5.40
2023-04-30T05:26:05.692Z,5.23
2023-04-30T05:28:35.804Z,5.43
2023-04-30T05:31:04.956Z,4.97
2023-04-30T05:33:33.994Z,5.07
2023-04-30T05:36:03.177Z,4.90
2023-04-30T05:38:33.539Z,5.10
2023-04-30T05:41:02.686Z,4.97
2023-04-30T05:43:32.548Z,4.77
2023-04-30T05:46:01.912Z,4.93
2023-04-30T05:48:32.067Z,4.73
2023-04-30T05:51:02.505Z,5.00
2023-04-30T05:53:33.644Z,4.47
2023-04-30T05:56:03.132Z,4.90
2023-04-30T05:58:32.890Z,4.90
2023-04-30T06:01:02.030Z,5.30
2023-04-30T06:03:31.081Z,4.70
2023-04-30T06:06:00.585Z,4.83
2023-04-30T06:08:29.761Z,5.37
2023-04-30T06:11:00.665Z,5.50
2023-04-30T06:13:29.784Z,5.10
2023-04-30T06:15:59.012Z,5.10
2023-04-30T06:18:29.404Z,4.93
2023-04-30T06:20:58.463Z,5.53
2023-04-30T06:23:27.451Z,8.53
2023-04-30T06:25:56.589Z,5.20
2023-04-30T06:28:27.378Z,4.90
2023-04-30T06:30:56.666Z,4.40
2023-04-30T06:33:25.487Z,4.97
2023-04-30T06:35:55.710Z,4.60
2023-04-30T06:38:24.680Z,4.37
2023-04-30T06:40:58.095Z,4.50
2023-04-30T06:43:28.799Z,4.70
2023-04-30T06:45:57.680Z,4.33
2023-04-30T06:48:27.201Z,4.67
2023-04-30T06:50:58.117Z,4.70
2023-04-30T06:53:27.171Z,4.63
2023-04-30T06:55:56.193Z,4.53
2023-04-30T06:58:25.219Z,5.00
2023-04-30T07:00:56.000Z,4.43
2023-04-30T07:03:26.489Z,5.17
2023-04-30T07:05:55.693Z,4.40
2023-04-30T07:08:24.886Z,4.43
2023-04-30T07:11:00.440Z,5.10
2023-04-30T07:13:29.691Z,4.70
2023-04-30T07:16:00.931Z,5.10
2023-04-30T07:18:31.734Z,4.33
2023-04-30T07:21:06.564Z,4.80
2023-04-30T07:23:35.803Z,4.70
2023-04-30T07:26:05.520Z,4.50
2023-04-30T07:28:34.753Z,4.30
2023-04-30T07:31:07.844Z,4.10
2023-04-30T07:33:38.708Z,4.10
2023-04-30T07:36:08.615Z,4.80
2023-04-30T07:38:42.842Z,4.80
2023-04-30T07:41:15.233Z,5.23
2023-04-30T07:43:49.043Z,5.63
2023-04-30T07:46:19.835Z,5.00
2023-04-30T07:48:49.495Z,4.80
2023-04-30T07:51:23.434Z,4.80
2023-04-30T07:53:54.694Z,4.83
2023-04-30T07:56:31.784Z,5.00
2023-04-30T07:59:03.390Z,4.80
2023-04-30T08:01:34.029Z,5.30
2023-04-30T08:04:03.370Z,4.63
2023-04-30T08:06:34.877Z,4.47
2023-04-30T08:09:05.033Z,4.00
2023-04-30T08:11:34.772Z,4.43
2023-04-30T08:14:04.810Z,4.20
2023-04-30T08:16:39.780Z,4.40
2023-04-30T08:19:11.499Z,4.30
2023-04-30T08:21:41.959Z,4.27
2023-04-30T08:24:11.221Z,4.30
2023-04-30T08:26:40.312Z,4.50
2023-04-30T08:29:09.953Z,4.33
2023-04-30T08:31:43.113Z,4.17
2023-04-30T08:34:13.722Z,5.50
2023-04-30T08:36:46.222Z,4.10
2023-04-30T08:39:15.854Z,4.40
2023-04-30T08:41:56.409Z,4.10
2023-04-30T08:44:29.277Z,4.20
2023-04-30T08:47:01.604Z,5.10
2023-04-30T08:49:34.691Z,4.83
2023-04-30T08:52:07.597Z,4.77
2023-04-30T08:54:38.250Z,4.30
2023-04-30T08:57:10.651Z,4.43
2023-04-30T08:59:40.068Z,4.53
2023-04-30T09:02:13.560Z,4.60
2023-04-30T09:04:47.699Z,4.50
2023-04-30T09:07:19.838Z,4.27
2023-04-30T09:09:48.728Z,4.23
2023-04-30T09:12:20.350Z,4.27
2023-04-30T09:15:03.841Z,4.03
2023-04-30T09:17:38.919Z,4.17
2023-04-30T09:20:24.139Z,4.27
2023-04-30T09:23:08.968Z,4.43
2023-04-30T09:25:42.514Z,4.17
2023-04-30T09:28:16.762Z,8.97
2023-04-30T09:30:46.695Z,5.40
2023-04-30T09:33:17.555Z,4.10
2023-04-30T09:35:47.109Z,3.70
2023-04-30T09:38:31.117Z,3.53
2023-04-30T09:41:05.263Z,3.63
2023-04-30T09:43:34.141Z,3.80
2023-04-30T09:46:08.022Z,3.80
2023-04-30T09:48:45.982Z,4.20
2023-04-30T09:51:20.690Z,3.13
2023-04-30T09:53:52.084Z,3.40
2023-04-30T09:56:24.720Z,3.60
2023-04-30T09:58:55.947Z,3.07
2023-04-30T10:01:29.027Z,3.63
2023-04-30T10:04:00.614Z,3.60
2023-04-30T10:06:35.607Z,4.00
2023-04-30T10:09:08.267Z,3.90
2023-04-30T10:11:43.115Z,3.27
2023-04-30T10:14:20.079Z,3.50
2023-04-30T10:16:59.316Z,3.37
2023-04-30T10:19:37.643Z,3.40
2023-04-30T10:22:06.818Z,3.40
2023-04-30T10:24:39.718Z,3.50
2023-04-30T10:27:09.006Z,3.37
2023-04-30T10:29:37.714Z,4.10
2023-04-30T10:32:09.400Z,3.40
2023-04-30T10:34:56.961Z,3.60
2023-04-30T10:37:36.102Z,3.80
2023-04-30T10:40:09.324Z,3.67
2023-04-30T10:42:38.861Z,3.80
2023-04-30T10:45:12.958Z,3.33
2023-04-30T10:47:45.902Z,3.10
2023-04-30T10:50:18.056Z,2.60
2023-04-30T10:52:47.843Z,2.70
2023-04-30T10:55:19.894Z,2.77
2023-04-30T10:57:51.667Z,3.03
2023-04-30T11:00:25.961Z,2.97
2023-04-30T11:03:00.845Z,2.67
2023-04-30T11:05:39.976Z,2.93
2023-04-30T11:08:13.607Z,2.93
2023-04-30T11:11:01.064Z,2.80
2023-04-30T11:13:30.275Z,3.00
2023-04-30T11:16:05.682Z,2.93
2023-04-30T11:18:35.811Z,2.80
2023-04-30T11:21:07.331Z,2.77
2023-04-30T11:23:40.315Z,3.20
2023-04-30T11:26:12.972Z,3.20
2023-04-30T11:28:54.441Z,2.90
2023-04-30T11:31:25.288Z,3.23
2023-04-30T11:34:00.804Z,3.30
2023-04-30T11:36:33.959Z,3.13
2023-04-30T11:39:07.986Z,2.93
2023-04-30T11:41:55.812Z,2.73
2023-04-30T11:44:28.873Z,2.70
2023-04-30T11:47:03.094Z,2.20
2023-04-30T11:49:36.415Z,2.50
2023-04-30T11:52:08.580Z,2.80
2023-04-30T11:54:39.259Z,2.58
2023-04-30T11:57:08.251Z,2.70
2023-04-30T11:59:44.012Z,2.63
2023-04-30T12:02:19.309Z,2.70
2023-04-30T12:04:50.188Z,2.65
2023-04-30T12:07:24.135Z,2.80
2023-04-30T12:09:57.467Z,2.50
2023-04-30T12:12:32.133Z,2.60
2023-04-30T12:15:12.892Z,2.40
2023-04-30T12:17:42.275Z,2.70
2023-04-30T12:20:13.272Z,2.80
2023-04-30T12:22:45.155Z,2.35
2023-04-30T12:25:17.918Z,2.50
2023-04-30T12:27:49.607Z,2.58
2023-04-30T12:30:23.260Z,2.30
2023-04-30T12:32:59.208Z,2.50
2023-04-30T12:35:32.655Z,2.70
2023-04-30T12:38:10.563Z,2.53
2023-04-30T12:40:40.895Z,2.50
2023-04-30T12:43:10.785Z,2.38
2023-04-30T12:45:52.896Z,2.30
2023-04-30T12:48:25.085Z,2.38
2023-04-30T12:50:57.092Z,2.30
2023-04-30T12:53:27.595Z,2.45
2023-04-30T12:56:15.519Z,2.25
2023-04-30T12:58:50.895Z,2.08
2023-04-30T13:01:21.739Z,1.88
2023-04-30T13:03:50.813Z,2.28
2023-04-30T13:06:21.390Z,2.47
2023-04-30T13:08:58.573Z,2.22
2023-04-30T13:11:28.609Z,1.63
2023-04-30T13:14:00.583Z,2.17
2023-04-30T13:16:31.222Z,2.20
2023-04-30T13:19:00.364Z,2.40
2023-04-30T13:21:29.104Z,1.80
2023-04-30T13:23:59.956Z,2.15
2023-04-30T13:26:29.787Z,2.50
2023-04-30T13:28:58.943Z,2.28
2023-04-30T13:31:27.859Z,2.40
2023-04-30T13:33:57.539Z,2.33
2023-04-30T13:36:27.184Z,2.10
2023-04-30T13:38:55.990Z,2.10
2023-04-30T13:41:26.988Z,2.30
2023-04-30T13:43:56.362Z,2.38
2023-04-30T13:46:26.554Z,1.98
2023-04-30T13:48:56.181Z,2.08
2023-04-30T13:51:25.494Z,2.03
2023-04-30T13:53:54.640Z,1.98
2023-04-30T13:56:26.937Z,2.28
2023-04-30T13:58:55.858Z,2.20
2023-04-30T14:01:25.276Z,2.08
2023-04-30T14:03:54.131Z,2.20
2023-04-30T14:06:23.035Z,1.50
2023-04-30T14:08:53.569Z,2.00
2023-04-30T14:11:23.255Z,1.80
2023-04-30T14:13:53.932Z,2.30
2023-04-30T14:16:24.004Z,2.45
2023-04-30T14:18:52.875Z,1.77
2023-04-30T14:21:22.050Z,1.70
2023-04-30T14:23:52.243Z,2.05
2023-04-30T14:26:21.802Z,2.17
2023-04-30T14:28:50.547Z,2.08
2023-04-30T14:31:23.441Z,1.80
2023-04-30T14:33:52.140Z,2.08
2023-04-30T14:36:21.021Z,2.40
2023-04-30T14:38:49.728Z,1.67
2023-04-30T14:41:18.454Z,1.73
2023-04-30T14:43:47.365Z,2.10
2023-04-30T14:46:16.221Z,1.80
2023-04-30T14:48:46.601Z,1.52
2023-04-30T14:51:15.225Z,1.88
2023-04-30T14:53:43.915Z,1.80
2023-04-30T14:56:13.169Z,1.73
2023-04-30T14:58:41.886Z,1.90
2023-04-30T15:01:10.907Z,1.80
2023-04-30T15:03:40.174Z,1.70
2023-04-30T15:06:11.349Z,1.90
2023-04-30T15:08:40.857Z,2.00
2023-04-30T15:11:10.878Z,1.75
2023-04-30T15:13:40.263Z,3.33
2023-04-30T15:16:09.603Z,3.20
2023-04-30T15:18:40.559Z,6.10
2023-04-30T15:21:11.248Z,2.95
2023-04-30T15:23:40.113Z,2.13
2023-04-30T15:26:09.533Z,4.97
2023-04-30T15:28:38.628Z,2.40
2023-04-30T15:31:07.510Z,4.00
2023-04-30T15:33:39.735Z,2.50
2023-04-30T15:36:11.689Z,2.70
2023-04-30T15:38:40.744Z,2.55
2023-04-30T15:41:09.385Z,2.72
2023-04-30T15:43:38.471Z,1.98
2023-04-30T15:46:07.343Z,2.30
2023-04-30T15:48:35.979Z,1.90
2023-04-30T15:51:04.893Z,1.92
2023-04-30T15:53:35.182Z,2.78
2023-04-30T15:56:04.785Z,2.78
2023-04-30T15:58:33.566Z,2.67
2023-04-30T16:01:02.477Z,2.90
2023-04-30T16:03:32.534Z,1.92
2023-04-30T16:06:02.994Z,2.42
2023-04-30T16:08:31.936Z,4.68
2023-04-30T16:11:03.881Z,2.25
2023-04-30T16:13:32.722Z,2.60
2023-04-30T16:16:01.546Z,3.35
2023-04-30T16:18:30.917Z,2.22
2023-04-30T16:21:00.679Z,1.88
2023-04-30T16:23:29.483Z,12.38
2023-04-30T16:25:58.456Z,1.75
2023-04-30T16:28:28.684Z,1.55
2023-04-30T16:30:57.635Z,1.85
2023-04-30T16:33:26.579Z,2.58
2023-04-30T16:35:55.709Z,3.05
2023-04-30T16:38:25.515Z,2.10
2023-04-30T16:40:55.197Z,1.50
2023-04-30T16:43:24.404Z,1.70
2023-04-30T16:45:54.674Z,1.77
2023-04-30T16:48:23.669Z,1.73
2023-04-30T16:50:52.777Z,2.30
2023-04-30T16:53:22.261Z,2.85
2023-04-30T16:55:53.185Z,2.28
2023-04-30T16:58:23.306Z,1.52
2023-04-30T17:00:56.191Z,2.35
2023-04-30T17:03:25.427Z,1.50
2023-04-30T17:05:54.965Z,1.70
2023-04-30T17:08:23.747Z,3.42
2023-04-30T17:10:52.782Z,1.75
2023-04-30T17:13:21.667Z,1.70
2023-04-30T17:15:50.526Z,1.90
2023-04-30T17:18:20.840Z,1.57
2023-04-30T17:20:49.799Z,1.73
2023-04-30T17:23:19.460Z,1.70
2023-04-30T17:25:49.056Z,1.50
2023-04-30T17:28:17.769Z,1.40
2023-04-30T17:30:47.558Z,1.60
2023-04-30T17:33:16.228Z,1.40
2023-04-30T17:35:46.980Z,1.57
2023-04-30T17:38:15.749Z,1.60
2023-04-30T17:40:44.625Z,1.70
2023-04-30T17:43:13.536Z,1.50
2023-04-30T17:45:43.877Z,1.83
2023-04-30T17:48:13.001Z,1.53
2023-04-30T17:50:41.906Z,1.90
2023-04-30T17:53:12.295Z,1.90
2023-04-30T17:55:41.716Z,1.60
2023-04-30T17:58:11.577Z,1.70
2023-04-30T18:00:42.339Z,1.73
2023-04-30T18:03:11.359Z,2.23
2023-04-30T18:05:40.328Z,3.30
2023-04-30T18:08:10.282Z,4.17
2023-04-30T18:10:40.559Z,2.90
2023-04-30T18:13:10.339Z,2.67
2023-04-30T18:15:38.993Z,2.00
2023-04-30T18:18:08.159Z,1.93
2023-04-30T18:20:37.117Z,2.10
2023-04-30T18:23:08.431Z,2.20
2023-04-30T18:25:40.335Z,2.40
2023-04-30T18:28:09.255Z,2.70
2023-04-30T18:30:38.778Z,2.57
2023-04-30T18:33:09.135Z,2.90
2023-04-30T18:35:38.420Z,3.70
2023-04-30T18:38:08.215Z,3.60
2023-04-30T18:40:36.965Z,3.67
2023-04-30T18:43:07.359Z,3.77
2023-04-30T18:45:36.705Z,5.13
2023-04-30T18:48:06.043Z,5.43
2023-04-30T18:50:34.954Z,5.73
2023-04-30T18:53:03.774Z,5.70
2023-04-30T18:55:32.440Z,7.10
2023-04-30T18:58:01.434Z,8.40
2023-04-30T19:00:31.556Z,8.43
2023-04-30T19:03:00.714Z,8.93
2023-04-30T19:05:29.436Z,16.73
2023-04-30T19:08:00.851Z,17.93
2023-04-30T19:10:29.537Z,13.23
2023-04-30T19:12:58.572Z,11.13
2023-04-30T19:15:29.759Z,10.40
2023-04-30T19:17:59.920Z,9.30
2023-04-30T19:20:28.969Z,9.53
2023-04-30T19:22:57.702Z,10.37
2023-04-30T19:25:26.897Z,10.37
2023-04-30T19:27:56.454Z,10.03
2023-04-30T19:30:25.523Z,10.20
2023-04-30T19:32:55.297Z,10.80
2023-04-30T19:35:25.815Z,10.27
2023-04-30T19:37:55.705Z,11.40
2023-04-30T19:40:29.947Z,10.70
2023-04-30T19:42:59.768Z,11.37
2023-04-30T19:45:28.857Z,11.43
2023-04-30T19:47:57.735Z,11.63
2023-04-30T19:50:28.169Z,12.50
2023-04-30T19:52:57.035Z,11.57
2023-04-30T19:55:25.813Z,11.23
2023-04-30T19:57:54.572Z,12.00
2023-04-30T20:00:23.686Z,13.90
2023-04-30T20:02:52.762Z,13.60
2023-04-30T20:05:21.861Z,13.40
2023-04-30T20:07:51.942Z,12.23
2023-04-30T20:10:20.930Z,12.57
2023-04-30T20:12:54.054Z,12.63
2023-04-30T20:15:23.562Z,13.63
2023-04-30T20:17:53.531Z,12.37
2023-04-30T20:20:24.678Z,12.93
2023-04-30T20:22:56.589Z,11.20
2023-04-30T20:25:29.454Z,11.83
2023-04-30T20:27:58.107Z,10.53
2023-04-30T20:30:26.767Z,11.67
2023-04-30T20:32:55.682Z,11.60
2023-04-30T20:35:24.577Z,12.30
2023-04-30T20:37:55.905Z,11.67
2023-04-30T20:40:24.705Z,11.30
2023-04-30T20:42:53.466Z,10.23
2023-04-30T20:45:23.199Z,10.07
2023-04-30T20:47:51.919Z,11.57
2023-04-30T20:50:20.768Z,12.97
2023-04-30T20:52:49.415Z,10.73
2023-04-30T20:55:21.136Z,9.93
2023-04-30T20:57:50.709Z,9.53
2023-04-30T21:00:19.869Z,9.63
2023-04-30T21:02:48.648Z,10.13
2023-04-30T21:05:17.516Z,9.00
2023-04-30T21:07:46.387Z,9.00
2023-04-30T21:10:15.114Z,8.80
2023-04-30T21:12:45.369Z,9.00
2023-04-30T21:15:14.406Z,8.97
2023-04-30T21:17:43.105Z,10.73
2023-04-30T21:20:13.814Z,11.80
2023-04-30T21:22:42.525Z,13.00
2023-04-30T21:25:12.300Z,13.67
2023-04-30T21:27:41.424Z,12.00
2023-04-30T21:30:14.988Z,9.30
2023-04-30T21:32:47.166Z,7.83
2023-04-30T21:35:16.380Z,7.80
2023-04-30T21:37:45.116Z,8.60
2023-04-30T21:40:14.391Z,8.53
2023-04-30T21:42:43.007Z,9.23
2023-04-30T21:45:13.438Z,10.20
2023-04-30T21:47:42.677Z,11.60
2023-04-30T21:50:12.466Z,12.07
2023-04-30T21:52:41.651Z,11.57
2023-04-30T21:55:11.204Z,11.57
2023-04-30T21:57:39.830Z,11.63
2023-04-30T22:00:14.615Z,13.50
2023-04-30T22:02:51.287Z,11.07
2023-04-30T22:05:21.142Z,11.27
2023-04-30T22:07:49.943Z,13.50
2023-04-30T22:10:18.625Z,15.73
2023-04-30T22:12:48.134Z,11.20
2023-04-30T22:15:16.986Z,8.50
2023-04-30T22:17:46.340Z,8.07
2023-04-30T22:20:16.765Z,8.27
2023-04-30T22:22:45.459Z,8.20
2023-04-30T22:25:14.408Z,7.63
2023-04-30T22:27:43.469Z,7.70
2023-04-30T22:30:13.009Z,10.53
2023-04-30T22:32:42.419Z,9.90
2023-04-30T22:35:12.632Z,10.87
2023-04-30T22:37:43.002Z,10.30
2023-04-30T22:40:12.633Z,10.20
2023-04-30T22:42:42.277Z,10.20
2023-04-30T22:45:12.105Z,10.53
2023-04-30T22:47:42.479Z,10.13
2023-04-30T22:50:12.063Z,10.37
2023-04-30T22:52:42.344Z,10.03
2023-04-30T22:55:11.688Z,10.00
2023-04-30T22:57:40.392Z,9.67
2023-04-30T23:00:11.689Z,9.77
2023-04-30T23:02:40.403Z,11.47
2023-04-30T23:05:10.046Z,11.47
2023-04-30T23:07:38.953Z,12.90
2023-04-30T23:10:10.245Z,13.03
2023-04-30T23:12:38.941Z,12.03
2023-04-30T23:15:08.664Z,13.10
2023-04-30T23:17:37.424Z,15.10
2023-04-30T23:20:08.020Z,11.70
2023-04-30T23:22:36.756Z,18.53
2023-04-30T23:25:05.826Z,16.40
2023-04-30T23:27:36.140Z,13.23
2023-04-30T23:30:05.729Z,16.73
2023-04-30T23:32:34.504Z,16.97
2023-04-30T23:35:03.458Z,14.40
2023-04-30T23:37:32.198Z,16.10
2023-04-30T23:40:01.497Z,10.40
2023-04-30T23:42:30.282Z,9.57
2023-04-30T23:45:00.381Z,9.37
2023-04-30T23:47:30.572Z,11.40
2023-04-30T23:49:59.282Z,13.40
2023-04-30T23:52:27.932Z,10.50
2023-04-30T23:54:56.894Z,10.40
2023-04-30T23:57:27.633Z,13.57
2023-04-30T23:59:56.985Z,9.40
